Time;durP1;ratioP1;P1;durP2;ratioP2;P2;SDS_P1;SDS_P2;PMS_P1;PMS_P2;Temp;Humidity;BMP_temperature;BMP_pressure;BME280_temperature;BME280_humidity;BME280_pressure;Samples;Min_cycle;Max_cycle;Signal;HPM_P1;HPM_P2
2022/12/24 00:00:56;;;;;;;41.58;15.32;;;6.40;99.90;;;;;;5010312;28;20411;-75
2022/12/24 00:03:21;;;;;;;41.40;15.97;;;6.40;99.90;;;;;;5028476;28;20454;-75
2022/12/24 00:05:47;;;;;;;41.30;15.63;;;6.40;99.90;;;;;;5028437;28;20443;-75
2022/12/24 00:08:13;;;;;;;47.30;16.55;;;6.40;99.90;;;;;;5009904;28;20441;-75
2022/12/24 00:10:38;;;;;;;44.13;16.33;;;6.40;99.90;;;;;;5007270;28;20410;-75
2022/12/24 00:13:04;;;;;;;37.33;14.68;;;6.40;99.90;;;;;;5005333;28;20399;-75
2022/12/24 00:15:29;;;;;;;36.83;14.50;;;6.40;99.90;;;;;;5025867;28;20419;-75
2022/12/24 00:17:55;;;;;;;39.55;15.43;;;6.40;99.90;;;;;;5010436;28;20423;-75
2022/12/24 00:20:21;;;;;;;38.83;15.23;;;6.40;99.90;;;;;;5027496;28;20407;-75
2022/12/24 00:22:46;;;;;;;38.25;15.52;;;6.40;99.90;;;;;;5010225;28;20567;-75
2022/12/24 00:25:12;;;;;;;36.97;15.27;;;6.40;99.90;;;;;;5027741;28;20461;-75
2022/12/24 00:27:37;;;;;;;33.77;14.47;;;6.40;99.90;;;;;;5010159;28;20458;-75
2022/12/24 00:30:03;;;;;;;37.50;15.65;;;6.40;99.90;;;;;;5027604;28;20411;-75
2022/12/24 00:32:29;;;;;;;39.80;16.00;;;6.40;99.90;;;;;;5010454;28;20468;-75
2022/12/24 00:34:55;;;;;;;37.97;15.90;;;6.40;99.90;;;;;;5009098;28;20809;-75
2022/12/24 00:37:20;;;;;;;45.97;16.00;;;6.40;99.90;;;;;;4993987;28;20872;-75
2022/12/24 00:39:46;;;;;;;48.03;16.43;;;6.40;99.90;;;;;;5027796;28;20806;-75
2022/12/24 00:42:11;;;;;;;40.85;16.40;;;6.40;99.90;;;;;;5026219;28;20515;-75
2022/12/24 00:44:37;;;;;;;44.50;16.67;;;6.40;99.90;;;;;;5025699;28;20453;-75
2022/12/24 00:47:03;;;;;;;43.35;16.60;;;6.40;99.90;;;;;;5026501;28;20534;-75
2022/12/24 00:49:28;;;;;;;43.27;16.23;;;6.40;99.90;;;;;;5027579;28;20415;-76
2022/12/24 00:51:54;;;;;;;47.10;16.02;;;6.40;99.90;;;;;;4992670;28;20419;-75
2022/12/24 00:54:19;;;;;;;41.30;16.47;;;6.40;99.90;;;;;;5026031;28;20407;-75
2022/12/24 00:56:45;;;;;;;42.20;16.03;;;6.40;99.90;;;;;;5009483;28;20784;-75
2022/12/24 00:59:11;;;;;;;42.73;15.47;;;6.40;99.90;;;;;;5024128;28;20445;-75
2022/12/24 01:01:37;;;;;;;42.20;16.45;;;6.40;99.90;;;;;;5024760;28;20427;-75
2022/12/24 01:06:47;;;;;;;45.03;16.33;;;6.40;99.90;;;;;;5009098;28;20430;-75
2022/12/24 01:09:13;;;;;;;43.60;16.07;;;6.40;99.90;;;;;;5009141;28;20870;-75
2022/12/24 01:11:38;;;;;;;46.60;16.05;;;6.40;99.90;;;;;;4992830;28;20400;-75
2022/12/24 01:14:04;;;;;;;44.87;15.63;;;6.40;99.90;;;;;;4998570;28;20429;-75
2022/12/24 01:16:30;;;;;;;42.40;15.67;;;6.40;99.90;;;;;;4992342;28;21085;-75
2022/12/24 01:18:55;;;;;;;42.38;15.43;;;6.40;99.90;;;;;;5008717;28;20522;-75
2022/12/24 01:21:21;;;;;;;45.43;15.40;;;6.40;99.90;;;;;;5009333;28;20431;-75
2022/12/24 01:23:46;;;;;;;41.77;15.07;;;6.40;99.90;;;;;;5009209;28;20502;-75
2022/12/24 01:26:12;;;;;;;39.13;15.00;;;6.40;99.90;;;;;;5009403;28;20454;-75
2022/12/24 01:28:38;;;;;;;38.83;14.90;;;6.40;99.90;;;;;;5026283;28;20412;-75
2022/12/24 01:31:30;;;;;;;40.97;15.20;;;6.40;99.90;;;;;;5026712;28;20403;-75
2022/12/24 01:33:55;;;;;;;46.95;15.77;;;6.40;99.90;;;;;;4988596;28;21000;-75
2022/12/24 01:36:21;;;;;;;41.63;15.13;;;6.40;99.90;;;;;;5009543;28;20419;-75
2022/12/24 01:38:46;;;;;;;45.10;15.23;;;6.40;99.90;;;;;;5008642;28;20478;-75
2022/12/24 01:44:38;;;;;;;39.92;14.55;;;6.40;99.90;;;;;;5026309;28;20407;-75
2022/12/24 01:47:39;;;;;;;43.58;15.77;;;6.40;99.90;;;;;;4970621;28;20415;-75
2022/12/24 01:50:15;;;;;;;44.42;15.38;;;6.40;99.90;;;;;;4911314;29;20520;-75
2022/12/24 01:52:41;;;;;;;38.78;14.85;;;6.50;99.90;;;;;;5011064;28;20445;-75
2022/12/24 01:55:12;;;;;;;41.08;14.73;;;6.50;99.90;;;;;;5009210;28;20417;-75
2022/12/24 01:58:08;;;;;;;34.88;14.50;;;6.50;99.90;;;;;;5008861;28;20955;-75
2022/12/24 02:00:34;;;;;;;34.80;14.38;;;6.50;99.90;;;;;;4988084;28;20419;-75
2022/12/24 02:02:59;;;;;;;39.20;15.05;;;6.50;99.90;;;;;;5026933;28;20969;-75
2022/12/24 02:05:35;;;;;;;35.58;14.20;;;6.50;99.90;;;;;;4992428;28;20925;-75
2022/12/24 02:08:03;;;;;;;37.55;14.13;;;6.50;99.90;;;;;;5009109;28;20419;-75
2022/12/24 02:10:28;;;;;;;39.75;14.20;;;6.50;99.90;;;;;;5008972;28;20403;-75
2022/12/24 02:12:55;;;;;;;38.77;14.73;;;6.50;99.90;;;;;;5012174;28;20823;-75
2022/12/24 02:15:21;;;;;;;41.15;15.25;;;6.50;99.90;;;;;;5012327;28;20918;-75
2022/12/24 02:18:11;;;;;;;37.33;14.40;;;6.50;99.90;;;;;;5029708;28;20415;-75
2022/12/24 02:20:49;;;;;;;39.30;13.95;;;6.50;99.90;;;;;;5011991;28;20415;-75
2022/12/24 02:23:42;;;;;;;39.50;14.80;;;6.50;99.90;;;;;;5029607;28;20435;-75
2022/12/24 02:26:25;;;;;;;37.45;14.13;;;6.50;99.90;;;;;;5012415;28;20924;-75
2022/12/24 02:29:16;;;;;;;36.40;14.20;;;6.50;99.90;;;;;;5029564;28;20422;-75
2022/12/24 02:31:52;;;;;;;37.25;14.25;;;6.50;99.90;;;;;;5011957;28;20502;-75
2022/12/24 02:34:22;;;;;;;37.58;14.68;;;6.50;99.90;;;;;;5029745;28;20438;-75
2022/12/24 02:37:02;;;;;;;37.30;14.48;;;6.50;99.90;;;;;;5011884;28;20465;-75
2022/12/24 02:39:37;;;;;;;39.23;15.83;;;6.50;99.90;;;;;;5012084;28;20461;-75
2022/12/24 02:42:06;;;;;;;40.20;15.70;;;6.50;99.90;;;;;;5029858;28;20927;-75
2022/12/24 02:45:00;;;;;;;44.67;15.90;;;6.50;99.90;;;;;;5011758;28;20938;-75
2022/12/24 02:47:28;;;;;;;50.00;16.38;;;6.50;99.90;;;;;;5011981;28;20427;-75
2022/12/24 02:49:54;;;;;;;45.57;16.03;;;6.50;99.90;;;;;;5029318;28;20425;-75
2022/12/24 02:52:34;;;;;;;47.53;16.53;;;6.50;99.90;;;;;;5028910;28;20415;-75
2022/12/24 02:55:45;;;;;;;51.30;16.05;;;6.50;99.90;;;;;;4997828;28;20421;-75
2022/12/24 02:58:32;;;;;;;44.60;16.20;;;6.50;99.90;;;;;;5000729;28;20823;-75
2022/12/24 03:01:15;;;;;;;49.47;16.50;;;6.50;99.90;;;;;;5010488;28;20419;-75
2022/12/24 03:03:54;;;;;;;42.80;16.15;;;6.50;99.90;;;;;;5011787;28;21218;-75
2022/12/24 03:06:29;;;;;;;51.63;16.55;;;6.50;99.90;;;;;;4999987;28;20919;-75
2022/12/24 03:08:59;;;;;;;55.00;16.48;;;6.50;99.90;;;;;;5029117;28;20419;-75
2022/12/24 03:11:25;;;;;;;51.97;16.70;;;6.50;99.90;;;;;;5028179;28;20426;-75
2022/12/24 03:13:53;;;;;;;53.20;16.85;;;6.50;99.90;;;;;;5010908;28;20708;-75
2022/12/24 03:16:23;;;;;;;47.60;16.05;;;6.50;99.90;;;;;;5011608;28;20472;-75
2022/12/24 03:18:51;;;;;;;50.25;16.60;;;6.50;99.90;;;;;;5011022;28;20423;-75
2022/12/24 03:21:26;;;;;;;60.72;17.45;;;6.50;99.90;;;;;;5028839;28;20414;-75
2022/12/24 03:23:53;;;;;;;83.15;17.95;;;6.50;99.90;;;;;;5010126;28;20443;-75
2022/12/24 03:26:19;;;;;;;66.60;17.42;;;6.50;99.90;;;;;;5010758;28;20446;-75
2022/12/24 03:28:46;;;;;;;69.15;17.77;;;6.50;99.90;;;;;;5028817;28;20921;-73
2022/12/24 03:31:12;;;;;;;67.03;17.88;;;6.50;99.90;;;;;;5028866;28;20395;-73
2022/12/24 03:33:38;;;;;;;65.25;18.48;;;6.50;99.90;;;;;;5010200;28;20439;-73
2022/12/24 03:36:04;;;;;;;56.90;17.38;;;6.50;99.90;;;;;;5008180;28;20497;-73
2022/12/24 03:38:31;;;;;;;56.97;17.27;;;6.50;99.90;;;;;;5011118;28;20407;-73
2022/12/24 03:40:56;;;;;;;74.15;18.05;;;6.50;99.90;;;;;;5011028;28;20418;-73
2022/12/24 03:43:22;;;;;;;73.70;18.50;;;6.50;99.90;;;;;;5010347;28;20457;-73
2022/12/24 03:45:48;;;;;;;68.67;17.77;;;6.50;99.90;;;;;;5011146;28;20411;-73
2022/12/24 03:48:13;;;;;;;71.40;18.77;;;6.50;99.90;;;;;;5026783;28;20938;-73
2022/12/24 03:50:39;;;;;;;59.73;16.70;;;6.50;99.90;;;;;;5028089;28;20407;-73
2022/12/24 03:53:05;;;;;;;66.68;18.00;;;6.50;99.90;;;;;;5027041;28;20486;-73
2022/12/24 03:55:30;;;;;;;74.53;18.80;;;6.50;99.90;;;;;;5010652;28;20918;-75
2022/12/24 03:57:56;;;;;;;57.83;16.85;;;6.50;99.90;;;;;;5027906;28;20434;-74
2022/12/24 04:00:21;;;;;;;62.80;18.03;;;6.50;99.90;;;;;;5028268;28;20842;-74
2022/12/24 04:02:47;;;;;;;69.93;19.15;;;6.50;99.90;;;;;;5027285;28;20543;-74
2022/12/24 04:05:15;;;;;;;68.15;18.58;;;6.50;99.90;;;;;;5028708;28;20407;-74
2022/12/24 04:07:42;;;;;;;66.80;19.10;;;6.50;99.90;;;;;;5010207;28;20415;-74
2022/12/24 04:10:08;;;;;;;75.22;19.38;;;6.50;99.90;;;;;;5011145;28;21108;-74
2022/12/24 04:12:34;;;;;;;69.38;18.73;;;6.50;99.90;;;;;;5027856;28;20408;-74
2022/12/24 04:15:00;;;;;;;85.07;19.55;;;6.50;99.90;;;;;;5010735;28;20403;-74
2022/12/24 04:17:26;;;;;;;74.27;18.73;;;6.50;99.90;;;;;;5027686;28;20458;-74
2022/12/24 04:19:51;;;;;;;62.50;19.83;;;6.50;99.90;;;;;;5010563;28;20933;-74
2022/12/24 04:22:17;;;;;;;82.47;19.97;;;6.50;99.90;;;;;;5027546;28;20431;-74
2022/12/24 04:24:42;;;;;;;71.05;19.92;;;6.50;99.90;;;;;;5027768;28;21275;-74
2022/12/24 04:27:08;;;;;;;70.80;20.83;;;6.50;99.90;;;;;;5028150;28;20407;-74
2022/12/24 04:29:33;;;;;;;68.25;20.67;;;6.60;99.90;;;;;;5010304;28;20449;-74
2022/12/24 04:31:59;;;;;;;70.07;20.90;;;6.60;99.90;;;;;;5027858;28;20406;-74
2022/12/24 04:34:26;;;;;;;71.03;21.60;;;6.60;99.90;;;;;;5027701;28;20441;-74
2022/12/24 04:36:51;;;;;;;66.70;22.43;;;6.60;99.90;;;;;;5027665;28;20422;-74
2022/12/24 04:39:17;;;;;;;67.30;22.03;;;6.60;99.90;;;;;;5027556;28;20402;-74
2022/12/24 04:41:43;;;;;;;61.10;22.58;;;6.70;99.90;;;;;;5026383;28;20434;-74
2022/12/24 04:44:09;;;;;;;66.80;23.20;;;6.70;99.90;;;;;;5010438;28;20402;-74
2022/12/24 04:46:35;;;;;;;64.60;23.13;;;6.80;99.90;;;;;;5009642;28;20997;-74
2022/12/24 04:49:01;;;;;;;64.33;23.43;;;6.80;99.90;;;;;;5009808;28;20411;-74
2022/12/24 04:51:27;;;;;;;66.72;22.90;;;6.90;99.90;;;;;;5009545;28;20911;-74
2022/12/24 04:53:54;;;;;;;63.67;23.83;;;6.90;99.90;;;;;;5027363;28;20486;-74
2022/12/24 04:56:22;;;;;;;67.60;23.92;;;6.90;99.90;;;;;;5009139;28;20766;-74
2022/12/24 04:58:49;;;;;;;73.90;23.63;;;6.90;99.90;;;;;;5009711;28;20498;-74
2022/12/24 05:01:21;;;;;;;61.20;22.83;;;7.00;99.90;;;;;;5010122;28;20419;-74
2022/12/24 05:03:47;;;;;;;54.17;22.10;;;7.00;99.90;;;;;;5009981;28;20504;-74
2022/12/24 05:06:16;;;;;;;68.83;22.87;;;7.00;99.90;;;;;;5010274;28;20863;-74
2022/12/24 05:08:42;;;;;;;66.38;22.23;;;7.00;99.90;;;;;;5009465;28;20411;-74
2022/12/24 05:11:08;;;;;;;55.10;20.92;;;7.10;99.90;;;;;;5009973;28;20444;-74
2022/12/24 05:13:34;;;;;;;54.47;20.27;;;7.20;99.90;;;;;;5009211;28;20974;-74
2022/12/24 05:16:00;;;;;;;57.90;21.50;;;7.20;99.90;;;;;;5027385;28;20418;-74
2022/12/24 05:18:26;;;;;;;57.50;20.27;;;7.30;99.90;;;;;;5009338;28;20530;-75
2022/12/24 05:20:51;;;;;;;52.60;19.53;;;7.20;99.90;;;;;;5009567;28;20415;-74
2022/12/24 05:26:29;;;;;;;53.53;18.20;;;7.30;99.90;;;;;;5000017;28;20488;-74
2022/12/24 05:28:57;;;;;;;43.35;17.13;;;7.30;99.90;;;;;;4978008;28;20500;-74
2022/12/24 05:31:24;;;;;;;43.70;16.37;;;7.40;99.90;;;;;;5031848;28;20482;-74
2022/12/24 05:33:50;;;;;;;42.40;15.35;;;7.30;99.90;;;;;;5026790;28;20439;-73
2022/12/24 05:36:16;;;;;;;40.00;14.43;;;7.40;99.90;;;;;;5008743;28;20439;-74
2022/12/24 05:38:42;;;;;;;39.60;13.67;;;7.40;99.90;;;;;;5016850;28;20399;-74
2022/12/24 05:41:08;;;;;;;40.13;12.52;;;7.40;99.90;;;;;;4998319;28;20404;-74
2022/12/24 05:43:35;;;;;;;36.17;11.27;;;7.40;99.90;;;;;;5020047;28;20405;-73
2022/12/24 05:46:02;;;;;;;39.65;11.10;;;7.40;99.90;;;;;;5023471;28;20413;-73
2022/12/24 05:48:28;;;;;;;36.40;9.98;;;7.40;99.90;;;;;;5031014;28;20407;-73
2022/12/24 05:50:54;;;;;;;37.00;9.33;;;7.40;99.90;;;;;;5029537;28;20457;-73
2022/12/24 05:53:20;;;;;;;37.22;9.60;;;7.40;99.90;;;;;;5020697;28;20798;-73
2022/12/24 05:55:46;;;;;;;38.17;8.15;;;7.40;99.90;;;;;;5012668;28;20446;-74
2022/12/24 05:58:11;;;;;;;39.40;8.60;;;7.40;99.90;;;;;;5006272;28;20440;-74
2022/12/24 06:00:37;;;;;;;33.47;7.23;;;7.50;99.90;;;;;;5025791;28;20407;-73
2022/12/24 06:03:03;;;;;;;34.50;6.88;;;7.50;99.90;;;;;;5030706;28;20912;-74
2022/12/24 06:05:29;;;;;;;36.67;6.47;;;7.40;99.90;;;;;;5012237;28;20411;-73
2022/12/24 06:07:54;;;;;;;37.53;6.37;;;7.50;99.90;;;;;;5030632;28;20407;-74
2022/12/24 06:10:20;;;;;;;27.87;5.90;;;7.50;99.90;;;;;;5012647;28;20495;-73
2022/12/24 06:12:46;;;;;;;36.83;6.32;;;7.50;99.90;;;;;;5030058;28;20407;-73
2022/12/24 06:15:11;;;;;;;36.60;6.23;;;7.50;99.90;;;;;;5012609;28;20411;-74
2022/12/24 06:17:37;;;;;;;36.60;6.38;;;7.60;99.90;;;;;;5012934;28;20422;-74
2022/12/24 06:20:04;;;;;;;34.80;5.53;;;7.60;99.90;;;;;;5030035;28;20414;-74
2022/12/24 06:22:29;;;;;;;43.55;6.57;;;7.70;99.90;;;;;;5009188;28;20437;-73
2022/12/24 06:24:55;;;;;;;43.53;6.05;;;7.80;99.90;;;;;;5025244;28;20408;-74
2022/12/24 06:27:25;;;;;;;42.78;6.28;;;7.90;99.90;;;;;;5012376;28;21314;-74
2022/12/24 06:29:51;;;;;;;38.03;6.47;;;7.90;99.90;;;;;;5011409;28;20418;-74
2022/12/24 06:32:16;;;;;;;43.08;6.82;;;7.90;99.90;;;;;;5030493;28;20403;-74
2022/12/24 06:34:42;;;;;;;43.67;6.57;;;8.00;99.90;;;;;;5029845;28;20415;-74
2022/12/24 06:37:15;;;;;;;34.00;5.35;;;8.00;99.90;;;;;;5029983;28;20447;-73
2022/12/24 06:39:40;;;;;;;44.38;6.28;;;8.00;99.90;;;;;;5029654;28;20407;-74
2022/12/24 06:42:06;;;;;;;43.87;6.30;;;8.00;99.90;;;;;;5012632;28;20803;-73
2022/12/24 06:44:31;;;;;;;44.53;6.78;;;8.00;99.90;;;;;;5029101;28;20399;-73
2022/12/24 06:46:57;;;;;;;41.10;5.87;;;8.00;99.90;;;;;;5012516;28;20414;-74
2022/12/24 06:49:23;;;;;;;48.88;7.57;;;8.00;99.90;;;;;;5029676;28;20514;-74
2022/12/24 06:51:48;;;;;;;43.60;6.77;;;8.00;99.90;;;;;;5029705;28;20824;-74
2022/12/24 06:54:14;;;;;;;39.83;6.47;;;8.00;99.90;;;;;;4999256;28;20412;-74
2022/12/24 06:56:39;;;;;;;46.27;6.67;;;8.00;99.90;;;;;;5029706;28;20821;-74
2022/12/24 06:59:05;;;;;;;49.08;7.20;;;8.00;99.90;;;;;;5029730;28;20404;-74
2022/12/24 07:01:30;;;;;;;39.13;6.23;;;8.00;99.90;;;;;;5029605;28;20419;-74
2022/12/24 07:03:56;;;;;;;37.00;5.65;;;8.00;99.90;;;;;;5029187;28;20407;-73
2022/12/24 07:06:27;;;;;;;37.27;5.37;;;8.00;99.90;;;;;;5011485;28;20438;-74
2022/12/24 07:08:53;;;;;;;39.58;5.90;;;8.00;99.90;;;;;;5011500;28;20411;-73
2022/12/24 07:11:19;;;;;;;46.47;6.60;;;8.00;99.90;;;;;;5011492;28;20404;-74
2022/12/24 07:13:46;;;;;;;45.07;6.90;;;8.00;99.90;;;;;;5029157;28;20410;-74
2022/12/24 07:16:11;;;;;;;42.35;6.32;;;8.00;99.90;;;;;;5011541;28;20465;-73
2022/12/24 07:18:37;;;;;;;43.67;7.27;;;8.00;99.90;;;;;;5028836;28;20812;-73
2022/12/24 07:21:06;;;;;;;51.78;7.30;;;8.00;99.90;;;;;;5029014;28;20777;-73
2022/12/24 07:23:32;;;;;;;38.87;5.67;;;8.00;99.90;;;;;;5028352;28;20431;-73
2022/12/24 07:26:02;;;;;;;39.55;6.13;;;8.00;99.90;;;;;;5029132;28;20494;-73
2022/12/24 07:28:28;;;;;;;43.40;6.22;;;8.00;99.90;;;;;;5010850;28;20443;-73
2022/12/24 07:30:58;;;;;;;44.08;6.85;;;8.00;99.90;;;;;;5029017;28;20468;-73
2022/12/24 07:33:24;;;;;;;45.15;6.47;;;8.00;99.90;;;;;;5010563;28;20422;-73
2022/12/24 07:35:59;;;;;;;44.60;7.15;;;8.10;99.90;;;;;;5028770;28;20756;-74
2022/12/24 07:38:25;;;;;;;47.03;6.40;;;8.00;99.90;;;;;;5010187;28;20411;-73
2022/12/24 07:40:51;;;;;;;41.70;6.23;;;8.00;99.90;;;;;;5010847;28;20414;-73
2022/12/24 07:43:16;;;;;;;42.90;6.10;;;8.10;99.90;;;;;;5010496;28;20449;-73
2022/12/24 07:45:42;;;;;;;49.33;6.97;;;8.10;99.90;;;;;;5028718;28;20763;-74
2022/12/24 07:48:07;;;;;;;41.80;6.88;;;8.10;99.90;;;;;;5028390;28;20416;-73
2022/12/24 07:50:33;;;;;;;44.27;6.70;;;8.10;99.90;;;;;;5028188;28;20486;-74
2022/12/24 07:52:59;;;;;;;39.97;6.50;;;8.10;99.90;;;;;;5028356;28;20411;-73
2022/12/24 07:55:24;;;;;;;42.80;6.30;;;8.10;99.90;;;;;;5028463;28;20449;-73
2022/12/24 07:57:50;;;;;;;42.35;6.18;;;8.10;99.90;;;;;;5009971;28;20403;-74
2022/12/24 08:00:16;;;;;;;40.10;6.40;;;8.20;99.90;;;;;;5010845;28;20748;-73
2022/12/24 08:02:41;;;;;;;34.92;5.78;;;8.20;99.90;;;;;;5027877;28;20926;-73
2022/12/24 08:05:07;;;;;;;39.97;5.93;;;8.20;99.90;;;;;;5028678;28;20750;-73
2022/12/24 08:07:33;;;;;;;44.78;7.22;;;8.20;99.90;;;;;;5027885;28;20831;-73
2022/12/24 08:09:58;;;;;;;38.90;5.93;;;8.20;99.90;;;;;;5027425;28;20490;-73
2022/12/24 08:12:24;;;;;;;42.25;6.07;;;8.20;99.90;;;;;;5010216;28;20418;-74
2022/12/24 08:14:50;;;;;;;37.67;5.67;;;8.20;99.90;;;;;;5028316;28;20455;-73
2022/12/24 08:17:15;;;;;;;42.13;6.72;;;8.20;99.90;;;;;;5027696;28;20417;-73
2022/12/24 08:19:41;;;;;;;43.07;6.83;;;8.20;99.90;;;;;;5028832;28;20850;-73
2022/12/24 08:22:06;;;;;;;38.35;5.75;;;8.20;99.90;;;;;;5009560;28;20441;-72
2022/12/24 08:24:32;;;;;;;36.00;6.07;;;8.20;99.90;;;;;;5026368;28;20924;-73
2022/12/24 08:26:58;;;;;;;38.92;5.50;;;8.30;99.90;;;;;;5002120;28;20418;-75
2022/12/24 08:29:23;;;;;;;36.67;6.17;;;8.30;99.90;;;;;;5008381;28;20838;-75
2022/12/24 08:31:49;;;;;;;36.10;6.18;;;8.20;99.90;;;;;;5025450;28;20510;-76
2022/12/24 08:34:14;;;;;;;41.10;6.70;;;8.30;99.90;;;;;;5022415;28;20415;-75
2022/12/24 08:36:40;;;;;;;34.58;5.32;;;8.30;99.90;;;;;;5024375;28;20403;-75
2022/12/24 08:39:07;;;;;;;37.40;5.67;;;8.30;99.90;;;;;;5025712;28;20407;-75
2022/12/24 08:41:33;;;;;;;40.67;5.85;;;8.30;99.90;;;;;;5004083;28;20434;-74
2022/12/24 08:43:59;;;;;;;43.03;5.63;;;8.20;99.90;;;;;;5008297;28;20403;-74
2022/12/24 08:46:24;;;;;;;39.67;5.22;;;8.30;99.90;;;;;;5023167;28;20836;-75
2022/12/24 08:48:50;;;;;;;44.57;5.80;;;8.20;99.90;;;;;;5008992;28;20419;-76
2022/12/24 08:51:17;;;;;;;41.83;7.00;;;8.30;99.90;;;;;;5006265;28;20424;-75
2022/12/24 08:53:44;;;;;;;37.47;6.30;;;8.30;99.90;;;;;;5008875;28;20941;-75
2022/12/24 08:56:10;;;;;;;40.23;6.13;;;8.30;99.90;;;;;;5005303;28;20466;-74
2022/12/24 08:58:36;;;;;;;41.72;6.25;;;8.30;99.90;;;;;;5025910;28;20410;-74
2022/12/24 09:01:12;;;;;;;34.70;5.22;;;8.30;99.90;;;;;;5025396;28;20461;-74
2022/12/24 09:03:38;;;;;;;37.75;5.78;;;8.30;99.90;;;;;;5005678;28;20413;-73
2022/12/24 09:06:05;;;;;;;39.53;6.80;;;8.30;99.90;;;;;;5026483;28;20403;-75
2022/12/24 09:08:31;;;;;;;33.75;5.65;;;8.30;99.90;;;;;;5025832;28;20675;-75
2022/12/24 09:11:03;;;;;;;41.08;6.05;;;8.40;99.90;;;;;;5026042;28;20403;-75
2022/12/24 09:13:28;;;;;;;33.47;5.68;;;8.30;99.90;;;;;;5026710;28;20391;-73
2022/12/24 09:15:54;;;;;;;38.63;6.60;;;8.40;99.90;;;;;;5006794;28;20493;-73
2022/12/24 09:18:20;;;;;;;36.87;5.90;;;8.40;99.90;;;;;;5026738;28;20423;-73
2022/12/24 09:20:46;;;;;;;36.60;6.30;;;8.40;99.90;;;;;;5027779;28;20429;-73
2022/12/24 09:23:12;;;;;;;40.92;6.03;;;8.40;99.90;;;;;;5029819;28;20435;-73
2022/12/24 09:25:42;;;;;;;33.23;5.73;;;8.50;99.90;;;;;;5010278;28;20400;-73
2022/12/24 09:28:08;;;;;;;32.88;6.10;;;8.50;99.90;;;;;;5005847;28;20431;-74
2022/12/24 09:30:34;;;;;;;30.80;5.95;;;8.50;99.90;;;;;;5030283;28;20425;-74
2022/12/24 09:32:59;;;;;;;37.50;7.03;;;8.50;99.90;;;;;;5029251;28;20431;-74
2022/12/24 09:35:25;;;;;;;40.30;7.13;;;8.60;99.90;;;;;;5022907;28;21104;-74
2022/12/24 09:38:01;;;;;;;42.13;6.53;;;8.60;99.90;;;;;;5008520;28;20520;-74
2022/12/24 09:40:35;;;;;;;41.28;6.53;;;8.60;99.90;;;;;;5031099;28;20407;-74
2022/12/24 09:43:04;;;;;;;36.03;6.43;;;8.60;99.90;;;;;;5028754;28;20438;-74
2022/12/24 09:45:33;;;;;;;47.80;7.65;;;8.70;99.90;;;;;;5003511;28;20442;-74
2022/12/24 09:48:23;;;;;;;47.33;8.50;;;8.70;99.90;;;;;;5008895;28;21127;-74
2022/12/24 09:51:03;;;;;;;44.92;7.60;;;8.80;99.90;;;;;;5009715;28;20844;-74
2022/12/24 09:53:41;;;;;;;40.45;6.82;;;8.90;99.90;;;;;;5028694;28;20431;-74
2022/12/24 09:56:14;;;;;;;37.20;6.15;;;8.90;99.90;;;;;;5028719;28;20415;-74
2022/12/24 09:58:44;;;;;;;36.28;6.32;;;9.00;99.90;;;;;;5011734;28;20458;-74
2022/12/24 10:01:15;;;;;;;35.95;7.10;;;9.00;99.90;;;;;;5030469;28;20807;-74
2022/12/24 10:03:41;;;;;;;32.55;5.95;;;9.10;99.90;;;;;;5029532;28;20430;-74
2022/12/24 10:06:18;;;;;;;34.03;6.30;;;9.20;99.90;;;;;;5030376;28;20410;-74
2022/12/24 10:09:05;;;;;;;38.67;6.33;;;9.20;99.90;;;;;;5029120;28;20433;-74
2022/12/24 10:11:52;;;;;;;34.45;6.07;;;9.20;99.90;;;;;;5012918;28;20779;-74
2022/12/24 10:14:29;;;;;;;33.55;6.00;;;9.20;99.90;;;;;;5028762;28;20657;-74
2022/12/24 10:17:33;;;;;;;37.20;5.97;;;9.20;99.90;;;;;;5010102;28;20422;-74
2022/12/24 10:20:10;;;;;;;38.28;6.40;;;9.20;99.90;;;;;;4975966;28;20489;-74
2022/12/24 10:22:58;;;;;;;33.00;5.68;;;9.30;99.90;;;;;;5024974;28;20474;-74
2022/12/24 10:26:01;;;;;;;36.75;5.05;;;9.30;99.90;;;;;;5010381;28;20435;-74
2022/12/24 10:29:21;;;;;;;38.95;6.60;;;9.30;99.90;;;;;;5009651;28;20889;-74
2022/12/24 10:32:08;;;;;;;32.67;5.97;;;9.40;99.90;;;;;;4931723;29;20853;-73
2022/12/24 10:34:57;;;;;;;34.05;6.25;;;9.40;99.90;;;;;;5005177;28;20992;-73
2022/12/24 10:37:25;;;;;;;34.30;6.13;;;9.40;99.90;;;;;;5011125;28;20415;-74
2022/12/24 10:39:52;;;;;;;36.30;6.25;;;9.50;99.90;;;;;;5009026;28;20437;-74
2022/12/24 10:42:19;;;;;;;36.90;6.03;;;9.50;99.90;;;;;;5011191;28;20930;-74
2022/12/24 10:44:56;;;;;;;36.97;5.77;;;9.50;99.90;;;;;;5026970;28;20430;-74
2022/12/24 10:47:23;;;;;;;31.10;5.90;;;9.50;99.90;;;;;;5012668;28;20456;-74
2022/12/24 10:50:00;;;;;;;33.20;6.15;;;9.50;99.90;;;;;;5004796;28;20430;-74
2022/12/24 10:52:32;;;;;;;26.55;5.18;;;9.50;99.90;;;;;;5028344;28;20436;-74
2022/12/24 10:55:06;;;;;;;32.72;6.22;;;9.40;99.90;;;;;;5028837;28;20509;-74
2022/12/24 10:57:32;;;;;;;34.33;6.17;;;9.50;99.90;;;;;;5011217;28;20457;-74
2022/12/24 10:59:58;;;;;;;34.92;5.35;;;9.40;99.90;;;;;;5027194;28;20422;-74
2022/12/24 11:02:33;;;;;;;34.67;6.43;;;9.40;99.90;;;;;;5027880;28;20488;-74
2022/12/24 11:05:01;;;;;;;34.80;5.55;;;9.40;99.90;;;;;;5028141;28;20496;-74
2022/12/24 11:07:28;;;;;;;32.40;5.68;;;9.50;99.90;;;;;;5028295;28;20431;-73
2022/12/24 11:09:56;;;;;;;32.55;5.90;;;9.50;99.90;;;;;;5010893;28;20822;-73
2022/12/24 11:12:25;;;;;;;34.20;5.75;;;9.60;99.90;;;;;;5021387;28;20432;-74
2022/12/24 11:15:03;;;;;;;37.20;5.68;;;9.60;99.90;;;;;;5010907;28;20454;-74
2022/12/24 11:17:29;;;;;;;32.83;5.60;;;9.70;99.90;;;;;;5026982;28;20427;-74
2022/12/24 11:19:55;;;;;;;29.65;6.72;;;9.70;99.90;;;;;;5023362;28;20522;-74
2022/12/24 11:22:25;;;;;;;33.10;5.53;;;9.70;99.90;;;;;;5003541;28;20487;-74
2022/12/24 11:25:21;;;;;;;36.53;5.93;;;9.70;99.90;;;;;;5006451;28;20466;-74
2022/12/24 11:27:50;;;;;;;34.17;5.47;;;9.70;99.90;;;;;;5011238;28;20421;-74
2022/12/24 11:30:15;;;;;;;31.45;6.15;;;9.70;99.90;;;;;;5007804;28;21142;-75
2022/12/24 11:32:43;;;;;;;32.40;5.38;;;9.70;99.90;;;;;;5007776;28;20484;-75
2022/12/24 11:35:20;;;;;;;34.22;5.68;;;9.70;99.90;;;;;;5026884;28;20557;-75
2022/12/24 11:38:06;;;;;;;40.75;6.53;;;9.70;99.90;;;;;;5009627;28;20443;-75
2022/12/24 11:40:44;;;;;;;34.20;6.32;;;9.70;99.90;;;;;;5010132;28;20459;-75
2022/12/24 11:43:43;;;;;;;31.27;5.70;;;9.70;99.90;;;;;;5005871;28;20888;-75
2022/12/24 11:46:17;;;;;;;39.00;6.53;;;9.70;99.90;;;;;;4991417;28;20502;-76
2022/12/24 11:48:43;;;;;;;35.03;5.95;;;9.70;99.90;;;;;;5027864;28;20420;-75
2022/12/24 11:51:22;;;;;;;35.45;5.38;;;9.70;99.90;;;;;;5008559;28;20934;-75
2022/12/24 11:54:19;;;;;;;34.80;5.57;;;9.70;99.90;;;;;;4991691;28;20417;-75
2022/12/24 11:56:51;;;;;;;35.05;5.75;;;9.70;99.90;;;;;;5000416;28;20423;-75
2022/12/24 11:59:24;;;;;;;32.15;5.07;;;9.70;99.90;;;;;;5027697;28;20935;-75
2022/12/24 12:02:01;;;;;;;29.20;5.70;;;9.70;99.90;;;;;;5006591;28;20444;-75
2022/12/24 12:04:30;;;;;;;26.55;4.20;;;9.70;99.90;;;;;;5008659;28;20465;-75
2022/12/24 12:06:59;;;;;;;28.05;5.00;;;9.70;99.90;;;;;;5027774;28;20399;-75
2022/12/24 12:09:37;;;;;;;29.95;4.32;;;9.70;99.90;;;;;;5010062;28;20454;-75
2022/12/24 12:12:20;;;;;;;30.90;5.43;;;9.80;99.90;;;;;;5009296;28;20430;-75
2022/12/24 12:14:54;;;;;;;26.27;4.93;;;9.80;99.90;;;;;;5008977;28;20494;-75
2022/12/24 12:17:31;;;;;;;24.13;5.05;;;9.80;99.90;;;;;;5026987;28;20411;-75
2022/12/24 12:20:03;;;;;;;26.42;4.68;;;9.80;99.90;;;;;;5025841;28;20473;-75
2022/12/24 12:23:06;;;;;;;21.47;4.33;;;9.80;99.90;;;;;;5027196;28;20935;-75
2022/12/24 12:25:43;;;;;;;20.80;3.50;;;9.90;99.90;;;;;;4992120;28;20580;-75
2022/12/24 12:28:31;;;;;;;18.88;3.53;;;10.00;99.90;;;;;;5023047;28;20410;-75
2022/12/24 12:31:09;;;;;;;22.13;4.00;;;10.10;99.90;;;;;;5008857;28;20411;-74
2022/12/24 12:33:49;;;;;;;19.33;3.47;;;10.10;99.90;;;;;;5007927;28;20415;-74
2022/12/24 12:36:19;;;;;;;22.70;3.58;;;10.10;99.90;;;;;;5006978;28;20443;-74
2022/12/24 12:38:45;;;;;;;22.43;3.70;;;10.00;99.90;;;;;;5009473;28;20465;-74
2022/12/24 12:41:20;;;;;;;25.00;3.83;;;10.00;99.90;;;;;;5025825;28;20426;-74
2022/12/24 12:44:05;;;;;;;19.00;3.42;;;10.00;99.90;;;;;;5000002;28;20419;-74
2022/12/24 12:46:52;;;;;;;20.10;3.58;;;9.90;99.90;;;;;;5026044;28;21102;-74
2022/12/24 12:49:39;;;;;;;21.42;3.78;;;9.90;99.90;;;;;;5025434;28;20442;-73
2022/12/24 12:52:28;;;;;;;19.17;4.07;;;9.90;99.90;;;;;;5026946;28;20435;-74
2022/12/24 12:55:30;;;;;;;19.10;3.35;;;9.90;99.90;;;;;;4998034;28;20418;-75
2022/12/24 12:58:01;;;;;;;19.88;3.25;;;9.90;99.90;;;;;;5009956;28;20502;-74
2022/12/24 13:00:30;;;;;;;14.73;3.00;;;9.90;99.90;;;;;;5026721;28;20407;-74
2022/12/24 13:03:35;;;;;;;19.35;2.97;;;9.90;99.90;;;;;;5027243;28;20442;-74
2022/12/24 13:06:51;;;;;;;14.10;2.50;;;9.90;99.90;;;;;;5008467;28;20438;-74
2022/12/24 13:09:25;;;;;;;18.42;3.08;;;9.90;99.90;;;;;;4949459;28;20433;-74